Home   Weather   Tunisia   Monastir   Past weeks
Flag for Tunisia

Past Weather in Monastir, Tunisia — Yesterday and Last 2 Weeks

Currently: 79 °F. Clear. (Weather station: Habib Bourguiba, Tunisia). See more current weather

Past Weather in Monastir — Graph

°F

Monastir Temperature Yesterday

Maximum temperature yesterday: 100 °F (at 12:00 pm)
Minimum temperature yesterday: 75 °F (at 4:00 am)
Average temperature yesterday: 87 °F

High & Low Weather Summary for the Past Weeks

 TemperatureHumidityPressure
High102 °F (Jul 24, 3:30 pm)83% (Jul 20, 3:30 am)30.09 "Hg (Jul 20, 3:30 am)
Low70 °F (Jul 23, 6:00 am)17% (Jul 24, 3:30 pm)29.77 "Hg (Jul 18, 5:30 pm)
Average83 °F58%29.95 "Hg
* Reported Jul 11 3:00 am — Jul 26 3:30 am, Monastir. Weather by CustomWeather, © 2021

Note: Actual official high and low records may vary slightly from our data, if they occured in-between our weather recording intervals... More about our weather records

Monastir Weather History for the Previous 24 Hours

Scroll right to see more
 ConditionsComfort  
Time TempWeatherWind HumidityBarometerVisibility
3:30 am
Mon, Jul 26
79 °FClear.No wind74%29.89 "Hg10 mi
3:00 am79 °FClear.No wind70%29.89 "Hg10 mi
2:30 am79 °FClear.3 mph70%29.92 "Hg10 mi
2:00 am81 °FClear.3 mph66%29.92 "Hg10 mi
1:30 am81 °FPassing clouds.3 mph66%29.92 "HgN/A
1:00 am82 °FClear.12 mph62%29.89 "Hg10 mi
12:30 am82 °FClear.14 mph66%29.89 "Hg10 mi
12:00 am82 °FClear.9 mph66%29.89 "Hg10 mi
11:30 pm
Sun, Jul 25
82 °FClear.10 mph66%29.89 "Hg10 mi
11:00 pm82 °FClear.9 mph70%29.89 "Hg10 mi
10:30 pm82 °FClear.10 mph70%29.89 "Hg10 mi
10:00 pm82 °FClear.15 mph74%29.89 "Hg10 mi
9:30 pm84 °FClear.16 mph70%29.89 "Hg10 mi
9:00 pm84 °FClear.16 mph66%29.89 "Hg10 mi
8:30 pm86 °FClear.17 mph62%29.86 "Hg10 mi
8:00 pm88 °FWarm.15 mph59%29.86 "HgN/A
7:30 pm88 °FClear.17 mph52%29.86 "Hg10 mi
7:00 pm90 °FSunny.15 mph49%29.83 "Hg10 mi
6:30 pm91 °FSunny.17 mph46%29.83 "Hg10 mi
6:00 pm93 °FSunny.20 mph41%29.83 "Hg10 mi
5:30 pm95 °FSunny.20 mph41%29.83 "Hg10 mi
5:00 pm95 °FSunny.23 mph47%29.83 "Hg10 mi
4:30 pm95 °FSunny.22 mph47%29.83 "Hg10 mi
4:00 pm97 °FSunny.23 mph42%29.83 "Hg10 mi
3:30 pm97 °FSunny.23 mph42%29.86 "Hg10 mi
3:00 pm97 °FSunny.25 mph44%29.86 "Hg10 mi
2:30 pm97 °FSunny.24 mph42%29.86 "Hg10 mi
2:00 pm99 °FSunny.24 mph37%29.86 "Hg10 mi
1:30 pm99 °FSunny.22 mph39%29.86 "Hg10 mi
1:00 pm99 °FSunny.23 mph39%29.86 "Hg10 mi
12:30 pm100 °FPassing clouds.13 mph24%29.86 "HgN/A
12:00 pm100 °FSunny.14 mph27%29.89 "Hg10 mi
11:30 am99 °FSunny.13 mph27%29.89 "Hg10 mi
11:00 am97 °FSunny.15 mph28%29.89 "Hg10 mi
10:30 am95 °FSunny.14 mph32%29.89 "Hg10 mi
10:00 am93 °FSunny.16 mph34%29.89 "Hg10 mi
9:30 am91 °FSunny.17 mph38%29.89 "Hg10 mi
9:00 am90 °FSunny.16 mph46%29.89 "Hg10 mi
8:30 am88 °FSunny.18 mph46%29.89 "Hg10 mi
7:30 am79 °FSunny.9 mph70%29.89 "Hg10 mi
7:00 am79 °FWarm.9 mph70%29.89 "HgN/A
6:30 am77 °FSunny.7 mph69%29.89 "Hg10 mi
6:00 am75 °FSunny.6 mph74%29.89 "Hg10 mi
5:30 am75 °FSunny.6 mph69%29.89 "Hg10 mi
5:00 am75 °FMild.6 mph69%29.89 "HgN/A
4:30 am75 °FMild.7 mph69%29.89 "HgN/A
4:00 am75 °FMild.3 mph69%29.89 "HgN/A
Weather by CustomWeather, © 2021

See weather overview